sensor_id;sensor_type;location;lat;lon;timestamp;pressure;altitude;pressure_sealevel;temperature;humidity
15817;BME280;8009;50.070;8.232;2023-01-29T00:00:53;101347.81;;;1.11;58.74
15817;BME280;8009;50.070;8.232;2023-01-29T00:03:29;101345.06;;;1.15;59.77
15817;BME280;8009;50.070;8.232;2023-01-29T00:05:58;101358.09;;;1.32;58.48
15817;BME280;8009;50.070;8.232;2023-01-29T00:08:29;101352.25;;;1.09;60.85
15817;BME280;8009;50.070;8.232;2023-01-29T00:11:02;101349.41;;;1.21;59.84
15817;BME280;8009;50.070;8.232;2023-01-29T00:13:30;101349.63;;;1.07;60.25
15817;BME280;8009;50.070;8.232;2023-01-29T00:16:03;101360.25;;;1.09;59.86
15817;BME280;8009;50.070;8.232;2023-01-29T00:18:36;101363.16;;;0.90;60.57
15817;BME280;8009;50.070;8.232;2023-01-29T00:21:08;101366.19;;;1.26;59.30
15817;BME280;8009;50.070;8.232;2023-01-29T00:23:36;101372.09;;;0.86;60.23
15817;BME280;8009;50.070;8.232;2023-01-29T00:26:07;101375.75;;;0.78;60.31
15817;BME280;8009;50.070;8.232;2023-01-29T00:31:10;101384.38;;;0.95;60.02
15817;BME280;8009;50.070;8.232;2023-01-29T00:33:39;101377.41;;;0.86;60.45
15817;BME280;8009;50.070;8.232;2023-01-29T00:36:14;101363.97;;;0.97;60.19
15817;BME280;8009;50.070;8.232;2023-01-29T00:43:46;101370.94;;;1.06;59.31
15817;BME280;8009;50.070;8.232;2023-01-29T00:46:30;101361.78;;;1.24;58.97
15817;BME280;8009;50.070;8.232;2023-01-29T00:51:34;101363.03;;;1.01;59.53
15817;BME280;8009;50.070;8.232;2023-01-29T01:04:13;101364.91;;;0.93;60.80
15817;BME280;8009;50.070;8.232;2023-01-29T01:14:24;101349.03;;;1.44;58.53
15817;BME280;8009;50.070;8.232;2023-01-29T01:19:28;101337.25;;;1.05;59.30
15817;BME280;8009;50.070;8.232;2023-01-29T01:21:58;101339.47;;;1.32;59.73
15817;BME280;8009;50.070;8.232;2023-01-29T01:24:51;101327.38;;;1.13;60.23
15817;BME280;8009;50.070;8.232;2023-01-29T01:27:19;101333.94;;;1.46;59.39
15817;BME280;8009;50.070;8.232;2023-01-29T01:29:57;101331.47;;;1.34;59.01
15817;BME280;8009;50.070;8.232;2023-01-29T01:32:26;101326.66;;;1.03;60.20
15817;BME280;8009;50.070;8.232;2023-01-29T01:37:31;101318.06;;;0.84;61.38
15817;BME280;8009;50.070;8.232;2023-01-29T01:40:12;101317.00;;;0.94;60.53
15817;BME280;8009;50.070;8.232;2023-01-29T01:42:42;101320.22;;;0.58;61.63
15817;BME280;8009;50.070;8.232;2023-01-29T01:50:25;101295.16;;;0.72;60.96
15817;BME280;8009;50.070;8.232;2023-01-29T01:52:59;101299.59;;;0.73;60.80
15817;BME280;8009;50.070;8.232;2023-01-29T01:58:11;101287.25;;;1.25;60.46
15817;BME280;8009;50.070;8.232;2023-01-29T02:00:42;101287.78;;;1.47;60.54
15817;BME280;8009;50.070;8.232;2023-01-29T02:08:27;101284.84;;;1.11;61.77
15817;BME280;8009;50.070;8.232;2023-01-29T02:13:46;101290.81;;;1.24;59.77
15817;BME280;8009;50.070;8.232;2023-01-29T02:16:19;101283.22;;;1.52;58.38
15817;BME280;8009;50.070;8.232;2023-01-29T02:18:49;101277.22;;;1.42;58.08
15817;BME280;8009;50.070;8.232;2023-01-29T02:34:15;101313.13;;;0.58;61.60
15817;BME280;8009;50.070;8.232;2023-01-29T02:36:49;101313.78;;;0.72;61.97
15817;BME280;8009;50.070;8.232;2023-01-29T02:39:27;101322.09;;;0.48;61.87
15817;BME280;8009;50.070;8.232;2023-01-29T02:42:06;101326.53;;;0.47;62.72
15817;BME280;8009;50.070;8.232;2023-01-29T02:52:30;101335.91;;;0.04;63.20
15817;BME280;8009;50.070;8.232;2023-01-29T03:00:15;101327.78;;;0.20;63.01
15817;BME280;8009;50.070;8.232;2023-01-29T03:05:39;101315.16;;;0.36;61.99
15817;BME280;8009;50.070;8.232;2023-01-29T03:08:41;101311.38;;;0.56;61.24
15817;BME280;8009;50.070;8.232;2023-01-29T03:12:06;101308.19;;;0.31;62.06
15817;BME280;8009;50.070;8.232;2023-01-29T03:15:10;101310.97;;;0.18;63.11
15817;BME280;8009;50.070;8.232;2023-01-29T03:18:07;101319.09;;;0.03;62.76
15817;BME280;8009;50.070;8.232;2023-01-29T03:20:44;101316.44;;;0.05;63.11
15817;BME280;8009;50.070;8.232;2023-01-29T03:23:18;101323.41;;;0.15;62.70
15817;BME280;8009;50.070;8.232;2023-01-29T03:28:29;101321.38;;;0.37;61.72
15817;BME280;8009;50.070;8.232;2023-01-29T03:31:12;101332.00;;;0.38;61.84
15817;BME280;8009;50.070;8.232;2023-01-29T03:41:42;101336.84;;;-0.01;62.97
15817;BME280;8009;50.070;8.232;2023-01-29T03:44:21;101327.88;;;0.10;62.69
15817;BME280;8009;50.070;8.232;2023-01-29T03:47:13;101317.69;;;0.45;62.40
15817;BME280;8009;50.070;8.232;2023-01-29T03:49:55;101312.31;;;0.52;61.70
15817;BME280;8009;50.070;8.232;2023-01-29T03:52:27;101318.06;;;0.18;63.08
15817;BME280;8009;50.070;8.232;2023-01-29T03:55:03;101327.81;;;0.17;62.49
15817;BME280;8009;50.070;8.232;2023-01-29T03:57:37;101340.47;;;-0.08;63.57
15817;BME280;8009;50.070;8.232;2023-01-29T04:02:47;101337.00;;;-0.13;63.95
15817;BME280;8009;50.070;8.232;2023-01-29T04:05:20;101337.22;;;0.44;62.39
15817;BME280;8009;50.070;8.232;2023-01-29T04:07:52;101332.13;;;0.26;63.20
15817;BME280;8009;50.070;8.232;2023-01-29T04:10:26;101324.25;;;0.20;63.25
15817;BME280;8009;50.070;8.232;2023-01-29T04:12:59;101313.47;;;0.32;62.91
15817;BME280;8009;50.070;8.232;2023-01-29T04:19:06;101307.13;;;0.41;61.85
15817;BME280;8009;50.070;8.232;2023-01-29T04:47:10;101316.81;;;-0.31;64.40
15817;BME280;8009;50.070;8.232;2023-01-29T04:49:44;101321.94;;;-0.11;64.04
15817;BME280;8009;50.070;8.232;2023-01-29T04:52:16;101311.47;;;-0.26;65.55
15817;BME280;8009;50.070;8.232;2023-01-29T04:54:53;101314.94;;;-0.18;64.91
15817;BME280;8009;50.070;8.232;2023-01-29T04:57:33;101308.69;;;-0.14;65.30
15817;BME280;8009;50.070;8.232;2023-01-29T05:00:07;101311.59;;;-0.40;65.86
15817;BME280;8009;50.070;8.232;2023-01-29T05:02:40;101318.25;;;-0.01;64.40
15817;BME280;8009;50.070;8.232;2023-01-29T05:05:12;101316.06;;;-0.42;65.76
15817;BME280;8009;50.070;8.232;2023-01-29T05:07:45;101330.28;;;-0.51;65.48
15817;BME280;8009;50.070;8.232;2023-01-29T05:10:18;101325.47;;;-0.10;64.80
15817;BME280;8009;50.070;8.232;2023-01-29T05:12:51;101323.72;;;-0.11;64.15
15817;BME280;8009;50.070;8.232;2023-01-29T05:15:28;101315.97;;;-0.33;65.26
15817;BME280;8009;50.070;8.232;2023-01-29T05:18:01;101310.25;;;0.03;63.98
15817;BME280;8009;50.070;8.232;2023-01-29T05:20:35;101295.63;;;-0.34;64.92
15817;BME280;8009;50.070;8.232;2023-01-29T05:23:08;101301.00;;;-0.40;64.87
15817;BME280;8009;50.070;8.232;2023-01-29T05:25:36;101289.38;;;-0.31;65.45
15817;BME280;8009;50.070;8.232;2023-01-29T05:28:05;101280.47;;;-0.24;65.41
15817;BME280;8009;50.070;8.232;2023-01-29T05:30:39;101283.41;;;0.26;62.51
15817;BME280;8009;50.070;8.232;2023-01-29T05:33:19;101290.97;;;-0.13;63.13
15817;BME280;8009;50.070;8.232;2023-01-29T05:35:49;101297.69;;;-0.63;65.03
15817;BME280;8009;50.070;8.232;2023-01-29T05:38:18;101299.97;;;-0.25;63.61
15817;BME280;8009;50.070;8.232;2023-01-29T05:40:47;101297.19;;;-0.16;63.44
15817;BME280;8009;50.070;8.232;2023-01-29T05:43:18;101303.00;;;-0.63;65.04
15817;BME280;8009;50.070;8.232;2023-01-29T05:45:53;101309.22;;;-0.70;65.77
15817;BME280;8009;50.070;8.232;2023-01-29T05:48:29;101311.13;;;-0.83;65.07
15817;BME280;8009;50.070;8.232;2023-01-29T05:50:58;101315.31;;;-0.59;64.70
15817;BME280;8009;50.070;8.232;2023-01-29T05:53:27;101309.94;;;-0.52;65.52
15817;BME280;8009;50.070;8.232;2023-01-29T05:55:59;101314.69;;;-0.87;66.62
15817;BME280;8009;50.070;8.232;2023-01-29T05:58:29;101324.09;;;-0.51;65.83
15817;BME280;8009;50.070;8.232;2023-01-29T06:00:57;101327.44;;;-0.32;64.88
15817;BME280;8009;50.070;8.232;2023-01-29T06:03:37;101335.63;;;-0.55;65.26
15817;BME280;8009;50.070;8.232;2023-01-29T06:06:06;101318.94;;;-0.68;65.47
15817;BME280;8009;50.070;8.232;2023-01-29T06:08:40;101320.75;;;-0.71;65.27
15817;BME280;8009;50.070;8.232;2023-01-29T06:11:10;101329.56;;;-0.71;65.67
15817;BME280;8009;50.070;8.232;2023-01-29T06:13:42;101317.09;;;-0.57;65.03
15817;BME280;8009;50.070;8.232;2023-01-29T06:16:14;101313.78;;;-0.86;66.40
15817;BME280;8009;50.070;8.232;2023-01-29T06:18:45;101311.78;;;-0.58;65.14
15817;BME280;8009;50.070;8.232;2023-01-29T06:21:14;101307.38;;;-0.59;65.27
15817;BME280;8009;50.070;8.232;2023-01-29T06:23:44;101302.09;;;-0.65;65.32
15817;BME280;8009;50.070;8.232;2023-01-29T06:26:15;101303.53;;;-0.29;64.50
15817;BME280;8009;50.070;8.232;2023-01-29T06:28:43;101286.72;;;-0.31;64.62
15817;BME280;8009;50.070;8.232;2023-01-29T06:31:12;101289.97;;;-0.03;63.67
15817;BME280;8009;50.070;8.232;2023-01-29T06:33:40;101284.47;;;0.15;64.23
15817;BME280;8009;50.070;8.232;2023-01-29T06:36:14;101290.09;;;-0.15;64.98
15817;BME280;8009;50.070;8.232;2023-01-29T06:38:42;101294.56;;;-0.17;63.94
15817;BME280;8009;50.070;8.232;2023-01-29T06:41:15;101292.72;;;-0.11;64.63
15817;BME280;8009;50.070;8.232;2023-01-29T06:43:43;101298.16;;;-0.21;65.19
15817;BME280;8009;50.070;8.232;2023-01-29T06:46:12;101297.88;;;0.02;64.27
15817;BME280;8009;50.070;8.232;2023-01-29T06:48:40;101294.66;;;-0.28;64.35
15817;BME280;8009;50.070;8.232;2023-01-29T06:51:11;101293.94;;;-0.41;65.54
15817;BME280;8009;50.070;8.232;2023-01-29T06:53:39;101295.75;;;-0.47;65.38
15817;BME280;8009;50.070;8.232;2023-01-29T06:56:08;101303.97;;;-0.75;66.64
15817;BME280;8009;50.070;8.232;2023-01-29T06:58:37;101301.25;;;-0.69;66.87
15817;BME280;8009;50.070;8.232;2023-01-29T07:01:09;101293.56;;;-0.09;65.24
15817;BME280;8009;50.070;8.232;2023-01-29T07:03:38;101295.94;;;-0.64;66.23
15817;BME280;8009;50.070;8.232;2023-01-29T07:06:10;101305.81;;;0.03;63.99
15817;BME280;8009;50.070;8.232;2023-01-29T07:08:39;101310.56;;;-0.25;65.11
15817;BME280;8009;50.070;8.232;2023-01-29T07:11:08;101302.66;;;-0.31;64.72
15817;BME280;8009;50.070;8.232;2023-01-29T07:13:36;101313.06;;;-0.10;63.93
15817;BME280;8009;50.070;8.232;2023-01-29T07:16:05;101321.66;;;0.11;63.61
15817;BME280;8009;50.070;8.232;2023-01-29T07:18:34;101336.38;;;-0.39;65.21
15817;BME280;8009;50.070;8.232;2023-01-29T07:21:03;101338.72;;;-0.07;63.51
15817;BME280;8009;50.070;8.232;2023-01-29T07:23:35;101343.44;;;-0.37;65.86
15817;BME280;8009;50.070;8.232;2023-01-29T07:26:04;101340.41;;;-0.99;67.19
15817;BME280;8009;50.070;8.232;2023-01-29T07:28:35;101347.31;;;-0.76;66.57
15817;BME280;8009;50.070;8.232;2023-01-29T07:31:05;101343.53;;;-0.49;65.90
15817;BME280;8009;50.070;8.232;2023-01-29T07:33:34;101347.63;;;-0.16;65.00
15817;BME280;8009;50.070;8.232;2023-01-29T07:36:06;101343.91;;;-1.00;66.26
15817;BME280;8009;50.070;8.232;2023-01-29T07:38:37;101335.47;;;-0.38;65.57
15817;BME280;8009;50.070;8.232;2023-01-29T07:41:06;101336.38;;;-0.38;65.44
15817;BME280;8009;50.070;8.232;2023-01-29T07:43:34;101335.56;;;-0.47;65.21
15817;BME280;8009;50.070;8.232;2023-01-29T07:46:03;101324.97;;;-0.51;66.23
15817;BME280;8009;50.070;8.232;2023-01-29T07:48:32;101313.03;;;-0.08;65.76
15817;BME280;8009;50.070;8.232;2023-01-29T07:51:01;101310.94;;;0.21;64.13
15817;BME280;8009;50.070;8.232;2023-01-29T07:53:29;101312.31;;;0.52;63.98
15817;BME280;8009;50.070;8.232;2023-01-29T07:56:01;101308.63;;;0.62;63.68
15817;BME280;8009;50.070;8.232;2023-01-29T07:58:29;101312.88;;;0.06;64.08
15817;BME280;8009;50.070;8.232;2023-01-29T08:00:59;101308.94;;;0.39;63.36
15817;BME280;8009;50.070;8.232;2023-01-29T08:03:31;101309.59;;;0.58;63.00
15817;BME280;8009;50.070;8.232;2023-01-29T08:06:00;101314.78;;;0.64;62.98
15817;BME280;8009;50.070;8.232;2023-01-29T08:08:29;101307.06;;;0.45;62.22
15817;BME280;8009;50.070;8.232;2023-01-29T08:11:02;101295.00;;;0.83;61.85
15817;BME280;8009;50.070;8.232;2023-01-29T08:13:31;101311.41;;;-0.20;64.16
15817;BME280;8009;50.070;8.232;2023-01-29T08:16:01;101324.56;;;0.63;61.59
15817;BME280;8009;50.070;8.232;2023-01-29T08:18:30;101327.66;;;0.31;62.80
15817;BME280;8009;50.070;8.232;2023-01-29T08:20:59;101342.31;;;-0.14;64.48
15817;BME280;8009;50.070;8.232;2023-01-29T08:23:28;101355.66;;;-0.20;64.38
15817;BME280;8009;50.070;8.232;2023-01-29T08:25:56;101339.38;;;0.13;63.83
15817;BME280;8009;50.070;8.232;2023-01-29T08:28:27;101336.72;;;0.10;63.67
15817;BME280;8009;50.070;8.232;2023-01-29T08:30:56;101330.00;;;-0.21;64.01
15817;BME280;8009;50.070;8.232;2023-01-29T08:33:24;101327.19;;;-0.08;64.47
15817;BME280;8009;50.070;8.232;2023-01-29T08:35:53;101335.97;;;0.01;65.04
15817;BME280;8009;50.070;8.232;2023-01-29T08:38:21;101345.75;;;-0.05;64.00
15817;BME280;8009;50.070;8.232;2023-01-29T08:40:50;101347.75;;;-0.28;64.96
15817;BME280;8009;50.070;8.232;2023-01-29T08:43:18;101326.16;;;0.06;63.45
15817;BME280;8009;50.070;8.232;2023-01-29T08:45:52;101326.06;;;0.15;63.58
15817;BME280;8009;50.070;8.232;2023-01-29T08:48:21;101338.09;;;-0.34;64.86
15817;BME280;8009;50.070;8.232;2023-01-29T08:50:49;101341.53;;;-0.24;63.91
15817;BME280;8009;50.070;8.232;2023-01-29T08:53:18;101346.00;;;-0.29;64.42
15817;BME280;8009;50.070;8.232;2023-01-29T08:55:49;101339.34;;;0.16;63.55
15817;BME280;8009;50.070;8.232;2023-01-29T08:58:17;101340.28;;;0.12;63.08
15817;BME280;8009;50.070;8.232;2023-01-29T09:00:46;101341.41;;;0.61;61.76
15817;BME280;8009;50.070;8.232;2023-01-29T09:03:17;101334.88;;;0.86;62.81
15817;BME280;8009;50.070;8.232;2023-01-29T09:05:46;101344.88;;;0.67;61.67
15817;BME280;8009;50.070;8.232;2023-01-29T09:08:14;101347.88;;;0.41;62.71
15817;BME280;8009;50.070;8.232;2023-01-29T09:10:44;101348.72;;;0.45;61.74
15817;BME280;8009;50.070;8.232;2023-01-29T09:13:12;101349.56;;;0.48;61.64
15817;BME280;8009;50.070;8.232;2023-01-29T09:15:41;101343.06;;;0.71;61.76
15817;BME280;8009;50.070;8.232;2023-01-29T09:18:09;101348.53;;;0.57;60.98
15817;BME280;8009;50.070;8.232;2023-01-29T09:20:40;101349.06;;;0.84;61.29
15817;BME280;8009;50.070;8.232;2023-01-29T09:23:09;101346.41;;;0.84;61.14
15817;BME280;8009;50.070;8.232;2023-01-29T09:25:38;101354.38;;;0.84;60.66
15817;BME280;8009;50.070;8.232;2023-01-29T09:28:06;101361.03;;;0.54;61.99
15817;BME280;8009;50.070;8.232;2023-01-29T09:30:34;101361.97;;;0.48;61.49
15817;BME280;8009;50.070;8.232;2023-01-29T09:33:03;101360.13;;;0.55;62.05
15817;BME280;8009;50.070;8.232;2023-01-29T09:35:34;101356.56;;;0.56;61.86
15817;BME280;8009;50.070;8.232;2023-01-29T09:38:04;101359.38;;;1.08;61.78
15817;BME280;8009;50.070;8.232;2023-01-29T09:40:38;101362.09;;;1.04;61.79
15817;BME280;8009;50.070;8.232;2023-01-29T09:43:12;101367.75;;;0.81;61.49
15817;BME280;8009;50.070;8.232;2023-01-29T09:45:51;101372.13;;;0.85;60.79
15817;BME280;8009;50.070;8.232;2023-01-29T09:48:24;101370.81;;;1.13;61.96
15817;BME280;8009;50.070;8.232;2023-01-29T09:50:56;101374.06;;;1.32;60.45
15817;BME280;8009;50.070;8.232;2023-01-29T09:56:30;101380.25;;;1.33;59.91
15817;BME280;8009;50.070;8.232;2023-01-29T09:59:11;101367.16;;;0.57;61.13
15817;BME280;8009;50.070;8.232;2023-01-29T10:01:45;101359.25;;;1.16;60.27
15817;BME280;8009;50.070;8.232;2023-01-29T10:04:34;101353.81;;;1.22;60.34
15817;BME280;8009;50.070;8.232;2023-01-29T10:07:20;101366.31;;;1.17;59.41
15817;BME280;8009;50.070;8.232;2023-01-29T10:10:07;101361.66;;;1.31;58.76
15817;BME280;8009;50.070;8.232;2023-01-29T10:12:52;101365.75;;;0.96;59.70
15817;BME280;8009;50.070;8.232;2023-01-29T10:15:47;101376.25;;;0.39;61.76
15817;BME280;8009;50.070;8.232;2023-01-29T10:18:48;101357.88;;;0.89;60.63
15817;BME280;8009;50.070;8.232;2023-01-29T10:21:32;101340.63;;;0.53;61.65
15817;BME280;8009;50.070;8.232;2023-01-29T10:26:42;101325.69;;;1.07;61.78
15817;BME280;8009;50.070;8.232;2023-01-29T10:29:15;101312.72;;;1.40;59.45
15817;BME280;8009;50.070;8.232;2023-01-29T10:31:49;101313.09;;;1.18;59.23
15817;BME280;8009;50.070;8.232;2023-01-29T10:34:25;101308.94;;;0.99;60.96
15817;BME280;8009;50.070;8.232;2023-01-29T10:36:56;101298.16;;;1.11;59.86
15817;BME280;8009;50.070;8.232;2023-01-29T10:39:25;101289.34;;;1.08;60.14
15817;BME280;8009;50.070;8.232;2023-01-29T10:42:22;101289.19;;;1.66;59.42
15817;BME280;8009;50.070;8.232;2023-01-29T10:45:01;101276.53;;;1.30;60.85
15817;BME280;8009;50.070;8.232;2023-01-29T10:50:40;101278.13;;;1.40;60.83
15817;BME280;8009;50.070;8.232;2023-01-29T10:53:22;101267.72;;;1.76;59.55
15817;BME280;8009;50.070;8.232;2023-01-29T10:55:58;101269.66;;;1.16;60.86
15817;BME280;8009;50.070;8.232;2023-01-29T10:58:36;101272.47;;;1.09;61.09
15817;BME280;8009;50.070;8.232;2023-01-29T11:01:07;101256.38;;;1.16;60.76
15817;BME280;8009;50.070;8.232;2023-01-29T11:03:35;101252.34;;;0.91;60.12
15817;BME280;8009;50.070;8.232;2023-01-29T11:06:10;101249.72;;;1.87;60.50
15817;BME280;8009;50.070;8.232;2023-01-29T11:11:16;101247.97;;;1.39;59.53
15817;BME280;8009;50.070;8.232;2023-01-29T11:13:59;101237.44;;;1.35;59.55
15817;BME280;8009;50.070;8.232;2023-01-29T11:16:41;101236.00;;;1.63;59.63
15817;BME280;8009;50.070;8.232;2023-01-29T11:19:11;101232.44;;;1.16;59.84
15817;BME280;8009;50.070;8.232;2023-01-29T11:29:38;101236.13;;;1.56;60.42
15817;BME280;8009;50.070;8.232;2023-01-29T11:32:11;101239.06;;;1.42;60.42
15817;BME280;8009;50.070;8.232;2023-01-29T11:35:18;101233.88;;;1.81;59.91
15817;BME280;8009;50.070;8.232;2023-01-29T11:37:48;101229.44;;;1.81;59.74
15817;BME280;8009;50.070;8.232;2023-01-29T11:40:37;101217.44;;;1.59;59.05
15817;BME280;8009;50.070;8.232;2023-01-29T11:46:12;101211.22;;;1.60;60.14
15817;BME280;8009;50.070;8.232;2023-01-29T11:48:43;101216.06;;;1.83;59.94
15817;BME280;8009;50.070;8.232;2023-01-29T11:51:20;101197.69;;;1.72;59.11
15817;BME280;8009;50.070;8.232;2023-01-29T11:53:52;101191.91;;;1.50;59.54
15817;BME280;8009;50.070;8.232;2023-01-29T11:56:26;101184.22;;;1.80;59.32
15817;BME280;8009;50.070;8.232;2023-01-29T11:58:56;101176.16;;;1.38;60.91
15817;BME280;8009;50.070;8.232;2023-01-29T12:01:34;101169.13;;;2.58;59.19
15817;BME280;8009;50.070;8.232;2023-01-29T12:04:14;101168.28;;;2.56;57.61
15817;BME280;8009;50.070;8.232;2023-01-29T12:06:46;101154.47;;;2.74;56.17
15817;BME280;8009;50.070;8.232;2023-01-29T12:09:19;101152.69;;;2.75;56.34
15817;BME280;8009;50.070;8.232;2023-01-29T12:11:49;101154.94;;;2.18;58.20
15817;BME280;8009;50.070;8.232;2023-01-29T12:14:27;101161.13;;;2.19;58.17
15817;BME280;8009;50.070;8.232;2023-01-29T12:17:02;101164.63;;;2.23;57.28
15817;BME280;8009;50.070;8.232;2023-01-29T12:19:35;101151.59;;;2.09;57.57
15817;BME280;8009;50.070;8.232;2023-01-29T12:22:15;101139.59;;;2.30;57.02
15817;BME280;8009;50.070;8.232;2023-01-29T12:24:49;101142.94;;;1.57;59.46
15817;BME280;8009;50.070;8.232;2023-01-29T12:27:25;101139.47;;;2.34;59.04
15817;BME280;8009;50.070;8.232;2023-01-29T12:30:02;101139.16;;;2.48;58.14
15817;BME280;8009;50.070;8.232;2023-01-29T12:32:41;101139.03;;;2.53;57.08
15817;BME280;8009;50.070;8.232;2023-01-29T12:35:16;101123.97;;;2.50;56.36
15817;BME280;8009;50.070;8.232;2023-01-29T12:37:53;101120.16;;;2.60;58.14
15817;BME280;8009;50.070;8.232;2023-01-29T12:40:28;101121.66;;;2.72;57.25
15817;BME280;8009;50.070;8.232;2023-01-29T12:43:02;101108.50;;;2.99;56.34
15817;BME280;8009;50.070;8.232;2023-01-29T12:45:32;101099.44;;;2.72;56.34
15817;BME280;8009;50.070;8.232;2023-01-29T12:48:08;101096.16;;;2.25;57.19
15817;BME280;8009;50.070;8.232;2023-01-29T12:50:38;101092.84;;;2.13;58.28
15817;BME280;8009;50.070;8.232;2023-01-29T12:53:19;101091.00;;;2.17;57.62
15817;BME280;8009;50.070;8.232;2023-01-29T12:55:52;101090.81;;;2.25;57.66
15817;BME280;8009;50.070;8.232;2023-01-29T12:58:26;101089.66;;;1.99;59.45
15817;BME280;8009;50.070;8.232;2023-01-29T13:01:02;101083.47;;;1.97;58.09
15817;BME280;8009;50.070;8.232;2023-01-29T13:03:44;101079.16;;;2.29;58.00
15817;BME280;8009;50.070;8.232;2023-01-29T13:06:15;101069.59;;;2.22;57.78
15817;BME280;8009;50.070;8.232;2023-01-29T13:08:47;101086.78;;;2.08;58.05
15817;BME280;8009;50.070;8.232;2023-01-29T13:11:21;101082.94;;;2.22;58.11
15817;BME280;8009;50.070;8.232;2023-01-29T13:13:55;101077.44;;;2.28;57.61
15817;BME280;8009;50.070;8.232;2023-01-29T13:16:29;101069.97;;;2.42;57.76
15817;BME280;8009;50.070;8.232;2023-01-29T13:19:08;101063.84;;;2.73;56.96
15817;BME280;8009;50.070;8.232;2023-01-29T13:21:43;101060.25;;;2.74;57.34
15817;BME280;8009;50.070;8.232;2023-01-29T13:24:16;101052.66;;;2.58;57.33
15817;BME280;8009;50.070;8.232;2023-01-29T13:26:49;101060.84;;;2.52;57.57
15817;BME280;8009;50.070;8.232;2023-01-29T13:29:21;101049.56;;;2.75;56.95
15817;BME280;8009;50.070;8.232;2023-01-29T13:31:55;101056.69;;;2.40;57.77
15817;BME280;8009;50.070;8.232;2023-01-29T13:34:28;101050.19;;;2.51;57.82
15817;BME280;8009;50.070;8.232;2023-01-29T13:37:01;101045.84;;;2.48;57.45
15817;BME280;8009;50.070;8.232;2023-01-29T13:39:32;101040.31;;;2.56;57.60
15817;BME280;8009;50.070;8.232;2023-01-29T13:42:14;101037.38;;;2.65;58.00
15817;BME280;8009;50.070;8.232;2023-01-29T13:44:47;101039.63;;;2.80;56.28
15817;BME280;8009;50.070;8.232;2023-01-29T13:47:23;101033.50;;;2.77;57.21
15817;BME280;8009;50.070;8.232;2023-01-29T13:49:58;101029.69;;;2.87;56.67
15817;BME280;8009;50.070;8.232;2023-01-29T13:52:34;101020.41;;;3.00;55.61
15817;BME280;8009;50.070;8.232;2023-01-29T13:55:06;101036.25;;;2.39;57.19
15817;BME280;8009;50.070;8.232;2023-01-29T13:57:47;101017.91;;;2.61;56.89
15817;BME280;8009;50.070;8.232;2023-01-29T14:00:47;101014.25;;;2.65;56.74
15817;BME280;8009;50.070;8.232;2023-01-29T14:06:50;101006.34;;;2.95;57.12
15817;BME280;8009;50.070;8.232;2023-01-29T14:12:40;101017.00;;;2.62;57.37
15817;BME280;8009;50.070;8.232;2023-01-29T14:15:22;101016.91;;;2.65;57.04
15817;BME280;8009;50.070;8.232;2023-01-29T14:18:03;101013.50;;;2.60;57.48
15817;BME280;8009;50.070;8.232;2023-01-29T14:20:36;101018.97;;;2.56;58.57
15817;BME280;8009;50.070;8.232;2023-01-29T14:23:21;101017.06;;;2.27;58.62
15817;BME280;8009;50.070;8.232;2023-01-29T14:25:51;101014.19;;;2.68;58.41
15817;BME280;8009;50.070;8.232;2023-01-29T14:28:22;101016.44;;;2.84;58.01
15817;BME280;8009;50.070;8.232;2023-01-29T14:30:52;101010.44;;;2.76;58.36
15817;BME280;8009;50.070;8.232;2023-01-29T14:33:26;101009.28;;;2.52;57.43
15817;BME280;8009;50.070;8.232;2023-01-29T14:35:56;101001.00;;;2.62;58.98
15817;BME280;8009;50.070;8.232;2023-01-29T14:38:28;101009.91;;;2.61;58.11
15817;BME280;8009;50.070;8.232;2023-01-29T14:41:06;100996.97;;;2.80;58.09
15817;BME280;8009;50.070;8.232;2023-01-29T14:43:38;101000.72;;;2.73;58.54
15817;BME280;8009;50.070;8.232;2023-01-29T14:49:06;100981.88;;;2.79;58.01
15817;BME280;8009;50.070;8.232;2023-01-29T14:51:36;100978.44;;;2.74;57.89
15817;BME280;8009;50.070;8.232;2023-01-29T14:54:17;100967.63;;;2.80;59.25
15817;BME280;8009;50.070;8.232;2023-01-29T14:56:55;100978.28;;;2.15;59.47
15817;BME280;8009;50.070;8.232;2023-01-29T14:59:29;100977.19;;;2.56;59.46
15817;BME280;8009;50.070;8.232;2023-01-29T15:02:09;100975.53;;;2.51;59.61
15817;BME280;8009;50.070;8.232;2023-01-29T15:04:43;100974.09;;;2.72;59.70
15817;BME280;8009;50.070;8.232;2023-01-29T15:07:27;100966.09;;;2.72;59.01
15817;BME280;8009;50.070;8.232;2023-01-29T15:10:05;100964.13;;;2.46;59.97
15817;BME280;8009;50.070;8.232;2023-01-29T15:12:44;100959.13;;;2.66;59.64
15817;BME280;8009;50.070;8.232;2023-01-29T15:15:17;100953.97;;;2.60;59.40
15817;BME280;8009;50.070;8.232;2023-01-29T15:17:53;100964.97;;;2.13;59.81
15817;BME280;8009;50.070;8.232;2023-01-29T15:20:29;100950.56;;;2.22;59.25
15817;BME280;8009;50.070;8.232;2023-01-29T15:22:57;100955.44;;;2.39;60.47
15817;BME280;8009;50.070;8.232;2023-01-29T15:25:33;100952.81;;;2.37;59.66
15817;BME280;8009;50.070;8.232;2023-01-29T15:28:03;100942.31;;;2.31;59.03
15817;BME280;8009;50.070;8.232;2023-01-29T15:30:36;100941.75;;;2.51;59.20
15817;BME280;8009;50.070;8.232;2023-01-29T15:33:08;100943.41;;;2.57;58.44
15817;BME280;8009;50.070;8.232;2023-01-29T15:35:38;100932.88;;;2.52;59.22
15817;BME280;8009;50.070;8.232;2023-01-29T15:38:15;100938.09;;;2.23;59.88
15817;BME280;8009;50.070;8.232;2023-01-29T15:40:55;100930.84;;;2.28;60.74
15817;BME280;8009;50.070;8.232;2023-01-29T15:43:25;100924.16;;;2.46;60.15
15817;BME280;8009;50.070;8.232;2023-01-29T15:45:56;100920.78;;;2.39;59.75
15817;BME280;8009;50.070;8.232;2023-01-29T15:48:30;100922.28;;;2.49;58.80
15817;BME280;8009;50.070;8.232;2023-01-29T15:51:00;100920.19;;;2.28;59.72
15817;BME280;8009;50.070;8.232;2023-01-29T15:53:35;100917.84;;;2.15;60.46
15817;BME280;8009;50.070;8.232;2023-01-29T15:56:10;100910.91;;;2.42;59.19
15817;BME280;8009;50.070;8.232;2023-01-29T15:58:39;100913.44;;;2.14;60.16
15817;BME280;8009;50.070;8.232;2023-01-29T16:01:12;100905.66;;;2.07;61.23
15817;BME280;8009;50.070;8.232;2023-01-29T16:03:41;100896.19;;;2.28;59.90
15817;BME280;8009;50.070;8.232;2023-01-29T16:06:10;100897.94;;;2.29;59.92
15817;BME280;8009;50.070;8.232;2023-01-29T16:08:40;100905.41;;;2.16;59.53
15817;BME280;8009;50.070;8.232;2023-01-29T16:11:14;100905.78;;;2.35;59.50
15817;BME280;8009;50.070;8.232;2023-01-29T16:13:46;100924.22;;;1.76;61.44